Date,TemperatureHighF,TemperatureAvgF,TemperatureLowF,DewpointHighF,DewpointAvgF,DewpointLowF,HumidityHigh,HumidityAvg,HumidityLow,PressureMaxIn,PressureMinIn,WindSpeedMaxMPH,WindSpeedAvgMPH,GustSpeedMaxMPH,PrecipitationSumIn
2013-3-1,45.5,30.0,17.2,33.2,24.2,15.5,95,80,54,30.50,30.40,8,1,12,0.00
2013-3-2,69.1,37.1,17.1,44.7,29.2,15.2,95,77,40,30.48,30.20,4,0,5,0.00
2013-3-3,66.9,43.5,29.3,42.6,34.5,27.8,95,74,37,30.20,29.81,5,1,10,0.00
2013-3-4,52.7,37.7,25.0,36.1,22.6,9.1,95,58,26,30.35,29.81,12,4,23,0.00
2013-3-5,46.2,30.2,18.5,18.2,13.7,10.8,79,53,24,30.53,30.35,11,4,26,0.00
2013-3-6,46.0,29.6,14.7,27.5,20.3,11.6,89,70,44,30.52,30.21,8,2,17,0.00
2013-3-7,57.6,37.1,23.2,32.7,27.0,20.4,92,70,36,30.26,30.18,4,1,11,0.00
2013-3-8,59.2,42.0,26.1,50.6,34.8,23.6,94,77,47,30.26,29.94,5,1,12,0.00
2013-3-9,59.2,40.9,29.7,57.9,38.9,27.3,99,93,81,30.09,29.77,17,5,32,0.00
2013-3-10,33.4,25.3,14.9,30.3,19.4,11.0,99,79,54,30.29,30.08,14,6,29,0.00
2013-3-11,60.8,35.0,13.6,31.0,21.5,10.8,89,63,29,30.26,30.06,11,2,21,0.00
2013-3-12,48.7,36.8,24.1,27.9,14.9,3.6,84,46,16,30.50,30.26,12,3,27,0.00
2013-3-13,72.3,41.9,18.7,32.3,21.7,11.6,80,51,18,30.51,30.31,8,1,14,0.00
2013-3-14,82.2,53.2,37.8,39.5,31.4,21.3,79,51,11,30.39,30.24,6,1,11,0.00
2013-3-15,86.7,60.0,39.9,40.8,31.6,18.9,76,43,10,30.24,29.94,8,2,18,0.00
2013-3-16,49.8,38.7,31.5,36.3,26.8,20.3,86,63,38,30.29,30.11,8,3,17,0.00
2013-3-17,39.4,31.9,26.8,33.3,28.2,21.2,98,86,63,30.24,29.85,8,2,15,0.00
2013-3-18,52.2,37.7,25.7,34.5,21.4,11.1,99,58,22,30.25,29.98,11,2,21,0.00
2013-3-19,57.6,39.7,28.4,30.8,20.6,10.1,76,48,23,30.52,30.19,11,3,20,0.00
2013-3-20,53.4,33.8,13.8,20.5,11.7,3.0,76,46,15,30.58,30.14,7,2,13,0.00
2013-3-21,52.3,39.7,28.6,29.1,20.8,16.6,94,50,27,30.14,29.92,8,3,18,0.00
2013-3-22,50.5,35.2,29.3,33.9,30.5,27.1,98,85,50,30.17,30.03,8,1,12,0.00
2013-3-23,31.3,28.2,23.7,30.0,25.5,17.6,97,90,75,30.35,30.15,11,4,21,0.00
2013-3-24,38.5,24.7,12.6,19.8,13.3,6.8,88,65,30,30.40,30.28,12,3,22,0.00
2013-3-25,39.9,23.3,12.9,14.9,11.5,8.3,87,64,31,30.51,30.40,11,2,21,0.00
2013-3-26,54.9,34.7,9.5,26.5,15.7,5.5,85,53,17,30.51,30.26,9,2,17,0.00
2013-3-27,49.3,49.3,49.3,23.5,23.5,23.5,36,36,36,30.26,30.26,2,2,9,0.00
2013-3-28,49.3,49.3,49.3,23.5,23.5,23.5,36,36,36,30.26,30.26,2,2,9,0.00
2013-3-29,49.3,49.3,49.3,23.5,23.5,23.5,36,36,36,30.26,30.26,2,2,9,0.00
2013-3-30,49.3,49.3,49.3,23.5,23.5,23.5,36,36,36,30.26,30.26,2,2,9,0.00
2013-3-31,49.3,49.3,49.3,23.5,23.5,23.5,36,36,36,30.26,30.26,2,2,9,0.00